sensor_id;sensor_type;location;lat;lon;timestamp;temperature;humidity
1075;DHT22;526;51.392;12.448;2024-01-30T05:03:03;4.30;96.10
1075;DHT22;526;51.392;12.448;2024-01-30T05:05:28;4.30;95.90
1075;DHT22;526;51.392;12.448;2024-01-30T05:07:54;4.20;95.90
1075;DHT22;526;51.392;12.448;2024-01-30T05:10:22;4.20;95.90
1075;DHT22;526;51.392;12.448;2024-01-30T05:12:48;4.20;95.80
1075;DHT22;526;51.392;12.448;2024-01-30T05:15:15;4.20;95.80
1075;DHT22;526;51.392;12.448;2024-01-30T05:17:41;4.10;95.80
1075;DHT22;526;51.392;12.448;2024-01-30T05:20:08;4.10;95.70
1075;DHT22;526;51.392;12.448;2024-01-30T05:22:34;4.10;95.90
1075;DHT22;526;51.392;12.448;2024-01-30T05:25:00;4.00;95.90
1075;DHT22;526;51.392;12.448;2024-01-30T05:27:25;3.90;96.10
1075;DHT22;526;51.392;12.448;2024-01-30T05:29:51;3.90;96.20
1075;DHT22;526;51.392;12.448;2024-01-30T05:32:16;3.70;96.60
1075;DHT22;526;51.392;12.448;2024-01-30T05:34:42;3.70;96.80
1075;DHT22;526;51.392;12.448;2024-01-30T05:37:07;3.60;96.90
1075;DHT22;526;51.392;12.448;2024-01-30T05:39:33;3.60;97.10
1075;DHT22;526;51.392;12.448;2024-01-30T05:42:00;3.60;97.10
1075;DHT22;526;51.392;12.448;2024-01-30T05:44:26;3.60;97.10
1075;DHT22;526;51.392;12.448;2024-01-30T05:46:53;3.60;97.10
1075;DHT22;526;51.392;12.448;2024-01-30T05:49:19;3.50;97.10
1075;DHT22;526;51.392;12.448;2024-01-30T05:51:44;3.50;96.90
1075;DHT22;526;51.392;12.448;2024-01-30T05:54:10;3.50;96.90
1075;DHT22;526;51.392;12.448;2024-01-30T05:56:37;3.70;96.60
1075;DHT22;526;51.392;12.448;2024-01-30T05:59:02;3.80;96.20
1075;DHT22;526;51.392;12.448;2024-01-30T06:01:28;4.00;95.50
1075;DHT22;526;51.392;12.448;2024-01-30T06:03:54;4.10;95.30
1075;DHT22;526;51.392;12.448;2024-01-30T06:06:20;4.10;95.00
1075;DHT22;526;51.392;12.448;2024-01-30T06:08:46;4.10;95.10
1075;DHT22;526;51.392;12.448;2024-01-30T06:11:11;4.10;94.90
1075;DHT22;526;51.392;12.448;2024-01-30T06:13:37;4.10;94.80
1075;DHT22;526;51.392;12.448;2024-01-30T06:16:03;4.10;94.80
1075;DHT22;526;51.392;12.448;2024-01-30T06:18:28;4.20;94.50
1075;DHT22;526;51.392;12.448;2024-01-30T06:20:56;4.20;94.30
1075;DHT22;526;51.392;12.448;2024-01-30T06:23:21;4.30;93.90
1075;DHT22;526;51.392;12.448;2024-01-30T06:25:47;4.40;93.70
1075;DHT22;526;51.392;12.448;2024-01-30T06:28:12;4.40;93.50
1075;DHT22;526;51.392;12.448;2024-01-30T06:30:38;4.40;93.50
1075;DHT22;526;51.392;12.448;2024-01-30T06:33:04;4.40;93.20
1075;DHT22;526;51.392;12.448;2024-01-30T06:35:29;4.40;93.30
1075;DHT22;526;51.392;12.448;2024-01-30T06:37:55;4.40;93.30
1075;DHT22;526;51.392;12.448;2024-01-30T06:40:21;4.40;93.20
1075;DHT22;526;51.392;12.448;2024-01-30T06:42:46;4.50;93.00
1075;DHT22;526;51.392;12.448;2024-01-30T06:45:12;4.50;92.90
1075;DHT22;526;51.392;12.448;2024-01-30T06:47:37;4.50;92.80
1075;DHT22;526;51.392;12.448;2024-01-30T06:50:03;4.50;92.80
1075;DHT22;526;51.392;12.448;2024-01-30T06:52:29;4.50;92.90
1075;DHT22;526;51.392;12.448;2024-01-30T06:54:54;4.40;92.90
1075;DHT22;526;51.392;12.448;2024-01-30T06:57:20;4.40;93.00
1075;DHT22;526;51.392;12.448;2024-01-30T06:59:45;4.40;93.10
1075;DHT22;526;51.392;12.448;2024-01-30T07:02:11;4.30;93.20
1075;DHT22;526;51.392;12.448;2024-01-30T07:04:37;4.30;93.50
1075;DHT22;526;51.392;12.448;2024-01-30T07:07:03;4.30;93.40
1075;DHT22;526;51.392;12.448;2024-01-30T07:09:30;4.30;93.20
1075;DHT22;526;51.392;12.448;2024-01-30T07:11:56;4.30;93.40
1075;DHT22;526;51.392;12.448;2024-01-30T07:14:23;4.30;93.40
1075;DHT22;526;51.392;12.448;2024-01-30T07:16:52;4.30;93.60
1075;DHT22;526;51.392;12.448;2024-01-30T07:19:17;4.30;93.50
1075;DHT22;526;51.392;12.448;2024-01-30T07:21:43;4.30;93.90
1075;DHT22;526;51.392;12.448;2024-01-30T07:24:09;4.30;93.80
1075;DHT22;526;51.392;12.448;2024-01-30T07:26:34;4.40;93.20
1075;DHT22;526;51.392;12.448;2024-01-30T07:29:01;4.50;92.90
1075;DHT22;526;51.392;12.448;2024-01-30T07:31:26;4.60;92.60
1075;DHT22;526;51.392;12.448;2024-01-30T07:33:52;4.70;92.50
1075;DHT22;526;51.392;12.448;2024-01-30T07:36:17;4.80;92.10
1075;DHT22;526;51.392;12.448;2024-01-30T07:38:43;4.80;92.20
1075;DHT22;526;51.392;12.448;2024-01-30T07:41:08;4.90;92.00
1075;DHT22;526;51.392;12.448;2024-01-30T07:43:34;4.90;91.80
1075;DHT22;526;51.392;12.448;2024-01-30T07:45:59;5.00;91.60
1075;DHT22;526;51.392;12.448;2024-01-30T07:48:27;5.10;91.10
1075;DHT22;526;51.392;12.448;2024-01-30T07:50:52;5.10;91.20
1075;DHT22;526;51.392;12.448;2024-01-30T07:53:18;5.20;90.80
1075;DHT22;526;51.392;12.448;2024-01-30T07:55:45;5.20;90.80
1075;DHT22;526;51.392;12.448;2024-01-30T07:58:12;5.30;90.50
1075;DHT22;526;51.392;12.448;2024-01-30T08:00:37;5.40;90.70
1075;DHT22;526;51.392;12.448;2024-01-30T08:03:04;5.40;90.50
1075;DHT22;526;51.392;12.448;2024-01-30T08:05:30;5.40;90.40
1075;DHT22;526;51.392;12.448;2024-01-30T08:07:55;5.50;90.40
1075;DHT22;526;51.392;12.448;2024-01-30T08:10:21;5.50;90.20
1075;DHT22;526;51.392;12.448;2024-01-30T08:12:46;5.60;90.40
1075;DHT22;526;51.392;12.448;2024-01-30T08:15:12;5.60;90.10
1075;DHT22;526;51.392;12.448;2024-01-30T08:17:40;5.70;90.10
1075;DHT22;526;51.392;12.448;2024-01-30T08:20:06;5.80;90.10
1075;DHT22;526;51.392;12.448;2024-01-30T08:22:33;5.80;90.20
1075;DHT22;526;51.392;12.448;2024-01-30T08:24:59;5.80;90.10
1075;DHT22;526;51.392;12.448;2024-01-30T08:27:25;5.90;90.10
1075;DHT22;526;51.392;12.448;2024-01-30T08:29:50;6.00;90.00
1075;DHT22;526;51.392;12.448;2024-01-30T08:32:16;6.00;89.90
1075;DHT22;526;51.392;12.448;2024-01-30T08:34:41;6.10;90.20
1075;DHT22;526;51.392;12.448;2024-01-30T08:37:07;6.10;89.60
1075;DHT22;526;51.392;12.448;2024-01-30T08:39:32;6.20;90.00
1075;DHT22;526;51.392;12.448;2024-01-30T08:41:58;6.30;89.60
1075;DHT22;526;51.392;12.448;2024-01-30T08:44:23;6.40;88.90
1075;DHT22;526;51.392;12.448;2024-01-30T08:46:49;6.50;88.80
1075;DHT22;526;51.392;12.448;2024-01-30T08:49:16;6.60;88.80
1075;DHT22;526;51.392;12.448;2024-01-30T08:51:42;6.70;88.90
1075;DHT22;526;51.392;12.448;2024-01-30T08:54:07;6.80;88.70
1075;DHT22;526;51.392;12.448;2024-01-30T08:56:34;6.90;88.70
1075;DHT22;526;51.392;12.448;2024-01-30T08:59:00;6.90;88.30
1075;DHT22;526;51.392;12.448;2024-01-30T09:01:25;7.00;88.30
1075;DHT22;526;51.392;12.448;2024-01-30T09:03:52;7.10;88.30
1075;DHT22;526;51.392;12.448;2024-01-30T09:06:17;7.10;88.10
1075;DHT22;526;51.392;12.448;2024-01-30T09:08:43;7.20;87.90
1075;DHT22;526;51.392;12.448;2024-01-30T09:11:11;7.20;87.90
1075;DHT22;526;51.392;12.448;2024-01-30T09:13:36;7.30;87.60
1075;DHT22;526;51.392;12.448;2024-01-30T09:16:02;7.30;88.00
1075;DHT22;526;51.392;12.448;2024-01-30T09:18:28;7.40;87.90
1075;DHT22;526;51.392;12.448;2024-01-30T09:20:54;7.50;88.00
1075;DHT22;526;51.392;12.448;2024-01-30T09:23:19;7.50;88.10
1075;DHT22;526;51.392;12.448;2024-01-30T09:25:45;7.60;87.70
1075;DHT22;526;51.392;12.448;2024-01-30T09:28:11;7.60;87.90
1075;DHT22;526;51.392;12.448;2024-01-30T09:30:36;7.70;87.80
1075;DHT22;526;51.392;12.448;2024-01-30T09:33:02;7.80;88.10
1075;DHT22;526;51.392;12.448;2024-01-30T09:35:27;7.90;87.90
1075;DHT22;526;51.392;12.448;2024-01-30T09:37:54;7.90;87.60
1075;DHT22;526;51.392;12.448;2024-01-30T09:40:19;8.00;87.60
1075;DHT22;526;51.392;12.448;2024-01-30T09:42:47;8.00;87.80
1075;DHT22;526;51.392;12.448;2024-01-30T09:45:14;8.10;87.50
1075;DHT22;526;51.392;12.448;2024-01-30T09:47:41;8.20;87.90
1075;DHT22;526;51.392;12.448;2024-01-30T09:50:15;8.20;87.50
1075;DHT22;526;51.392;12.448;2024-01-30T09:52:41;8.30;87.40
1075;DHT22;526;51.392;12.448;2024-01-30T09:55:08;8.30;87.50
1075;DHT22;526;51.392;12.448;2024-01-30T09:57:36;8.40;87.80
1075;DHT22;526;51.392;12.448;2024-01-30T10:00:04;8.40;87.20
1075;DHT22;526;51.392;12.448;2024-01-30T10:02:32;8.50;87.30
1075;DHT22;526;51.392;12.448;2024-01-30T10:04:57;8.50;87.40
1075;DHT22;526;51.392;12.448;2024-01-30T10:07:23;8.50;87.30
1075;DHT22;526;51.392;12.448;2024-01-30T10:09:49;8.60;87.50
1075;DHT22;526;51.392;12.448;2024-01-30T10:12:15;8.60;87.20
1075;DHT22;526;51.392;12.448;2024-01-30T10:14:42;8.60;87.10
1075;DHT22;526;51.392;12.448;2024-01-30T10:17:09;8.60;87.20
1075;DHT22;526;51.392;12.448;2024-01-30T10:19:41;8.70;87.80
1075;DHT22;526;51.392;12.448;2024-01-30T10:22:07;8.70;87.00
1075;DHT22;526;51.392;12.448;2024-01-30T10:24:35;8.70;87.10
1075;DHT22;526;51.392;12.448;2024-01-30T10:27:01;8.80;87.30
1075;DHT22;526;51.392;12.448;2024-01-30T10:29:27;8.90;87.40
1075;DHT22;526;51.392;12.448;2024-01-30T10:32:01;9.00;87.20
1075;DHT22;526;51.392;12.448;2024-01-30T10:34:27;9.10;87.20
1075;DHT22;526;51.392;12.448;2024-01-30T10:37:01;9.20;87.10
1075;DHT22;526;51.392;12.448;2024-01-30T10:39:29;9.20;87.30
1075;DHT22;526;51.392;12.448;2024-01-30T10:42:03;9.30;87.40
1075;DHT22;526;51.392;12.448;2024-01-30T10:44:30;9.40;87.50
1075;DHT22;526;51.392;12.448;2024-01-30T10:47:03;9.40;87.10
1075;DHT22;526;51.392;12.448;2024-01-30T10:49:32;9.40;87.20
1075;DHT22;526;51.392;12.448;2024-01-30T10:51:58;9.50;87.70
1075;DHT22;526;51.392;12.448;2024-01-30T10:54:25;9.60;87.20
1075;DHT22;526;51.392;12.448;2024-01-30T10:56:52;9.70;86.90
1075;DHT22;526;51.392;12.448;2024-01-30T10:59:18;9.80;87.30
1075;DHT22;526;51.392;12.448;2024-01-30T11:01:44;9.80;87.00
1075;DHT22;526;51.392;12.448;2024-01-30T11:04:10;9.90;87.20
1075;DHT22;526;51.392;12.448;2024-01-30T11:06:41;9.90;86.80
1075;DHT22;526;51.392;12.448;2024-01-30T11:09:10;9.90;87.30
1075;DHT22;526;51.392;12.448;2024-01-30T11:11:58;10.00;87.20
1075;DHT22;526;51.392;12.448;2024-01-30T11:14:28;10.00;87.10
1075;DHT22;526;51.392;12.448;2024-01-30T11:16:58;10.00;87.00
1075;DHT22;526;51.392;12.448;2024-01-30T11:19:25;10.00;87.10
1075;DHT22;526;51.392;12.448;2024-01-30T11:21:54;10.00;87.40
1075;DHT22;526;51.392;12.448;2024-01-30T11:24:22;10.00;87.50
1075;DHT22;526;51.392;12.448;2024-01-30T11:26:57;10.00;87.50
1075;DHT22;526;51.392;12.448;2024-01-30T11:29:27;10.00;87.50
1075;DHT22;526;51.392;12.448;2024-01-30T11:31:54;10.10;88.00
1075;DHT22;526;51.392;12.448;2024-01-30T11:34:20;10.20;87.70
1075;DHT22;526;51.392;12.448;2024-01-30T11:36:52;10.20;87.70
1075;DHT22;526;51.392;12.448;2024-01-30T11:39:20;10.30;88.00
1075;DHT22;526;51.392;12.448;2024-01-30T11:41:46;10.40;88.10
1075;DHT22;526;51.392;12.448;2024-01-30T11:44:13;10.40;88.00
1075;DHT22;526;51.392;12.448;2024-01-30T11:46:38;10.50;88.00
1075;DHT22;526;51.392;12.448;2024-01-30T11:49:04;10.50;87.60
1075;DHT22;526;51.392;12.448;2024-01-30T11:51:31;10.60;87.70
1075;DHT22;526;51.392;12.448;2024-01-30T11:53:57;10.60;87.90
1075;DHT22;526;51.392;12.448;2024-01-30T11:56:24;10.60;88.00
1075;DHT22;526;51.392;12.448;2024-01-30T11:58:49;10.70;87.70
1075;DHT22;526;51.392;12.448;2024-01-30T12:01:17;10.70;87.90
1075;DHT22;526;51.392;12.448;2024-01-30T12:03:42;10.70;88.10
1075;DHT22;526;51.392;12.448;2024-01-30T12:06:08;11.00;88.40
1075;DHT22;526;51.392;12.448;2024-01-30T12:08:34;11.30;87.60
1075;DHT22;526;51.392;12.448;2024-01-30T12:11:00;11.60;86.70
1075;DHT22;526;51.392;12.448;2024-01-30T12:13:31;11.80;86.50
1075;DHT22;526;51.392;12.448;2024-01-30T12:15:56;11.90;86.00
1075;DHT22;526;51.392;12.448;2024-01-30T12:18:22;11.90;86.00
1075;DHT22;526;51.392;12.448;2024-01-30T12:21:00;12.00;86.20
1075;DHT22;526;51.392;12.448;2024-01-30T12:23:27;12.20;85.80
1075;DHT22;526;51.392;12.448;2024-01-30T12:25:53;12.20;85.60
1075;DHT22;526;51.392;12.448;2024-01-30T12:28:19;12.20;85.80
1075;DHT22;526;51.392;12.448;2024-01-30T12:30:44;12.20;86.60
1075;DHT22;526;51.392;12.448;2024-01-30T12:33:16;12.10;86.60
1075;DHT22;526;51.392;12.448;2024-01-30T12:35:46;12.20;87.00
1075;DHT22;526;51.392;12.448;2024-01-30T12:38:12;12.20;86.80
1075;DHT22;526;51.392;12.448;2024-01-30T12:40:37;12.30;87.00
1075;DHT22;526;51.392;12.448;2024-01-30T12:43:03;12.30;87.30
1075;DHT22;526;51.392;12.448;2024-01-30T12:45:30;12.40;87.20
1075;DHT22;526;51.392;12.448;2024-01-30T12:47:55;12.40;87.30
1075;DHT22;526;51.392;12.448;2024-01-30T12:50:21;12.50;87.40
1075;DHT22;526;51.392;12.448;2024-01-30T12:52:47;12.80;87.50
1075;DHT22;526;51.392;12.448;2024-01-30T12:55:13;12.80;86.90
1075;DHT22;526;51.392;12.448;2024-01-30T12:57:39;12.90;86.90
1075;DHT22;526;51.392;12.448;2024-01-30T13:00:05;12.90;87.10
1075;DHT22;526;51.392;12.448;2024-01-30T13:02:33;13.00;87.00
1075;DHT22;526;51.392;12.448;2024-01-30T13:05:03;13.20;86.80
1075;DHT22;526;51.392;12.448;2024-01-30T13:07:29;13.20;86.60
1075;DHT22;526;51.392;12.448;2024-01-30T13:09:54;13.30;86.60
1075;DHT22;526;51.392;12.448;2024-01-30T13:12:20;13.40;86.60
1075;DHT22;526;51.392;12.448;2024-01-30T13:14:45;13.50;86.30
1075;DHT22;526;51.392;12.448;2024-01-30T13:17:11;13.70;85.90
1075;DHT22;526;51.392;12.448;2024-01-30T13:19:36;13.70;85.60
1075;DHT22;526;51.392;12.448;2024-01-30T13:22:02;13.90;85.70
1075;DHT22;526;51.392;12.448;2024-01-30T13:24:27;14.20;85.80
1075;DHT22;526;51.392;12.448;2024-01-30T13:26:53;14.40;85.10
1075;DHT22;526;51.392;12.448;2024-01-30T13:29:19;14.60;85.00
1075;DHT22;526;51.392;12.448;2024-01-30T13:31:44;14.30;84.00
1075;DHT22;526;51.392;12.448;2024-01-30T13:34:11;14.00;84.20
1075;DHT22;526;51.392;12.448;2024-01-30T13:36:38;13.70;84.90
1075;DHT22;526;51.392;12.448;2024-01-30T13:39:03;13.70;85.20
1075;DHT22;526;51.392;12.448;2024-01-30T13:41:32;13.60;85.20
1075;DHT22;526;51.392;12.448;2024-01-30T13:43:58;13.50;85.30
1075;DHT22;526;51.392;12.448;2024-01-30T13:46:23;13.70;85.50
1075;DHT22;526;51.392;12.448;2024-01-30T13:48:50;13.80;84.90
1075;DHT22;526;51.392;12.448;2024-01-30T13:51:16;13.80;85.00
1075;DHT22;526;51.392;12.448;2024-01-30T13:53:42;13.70;84.80
1075;DHT22;526;51.392;12.448;2024-01-30T13:56:08;13.60;85.00
1075;DHT22;526;51.392;12.448;2024-01-30T13:58:33;13.40;85.40
1075;DHT22;526;51.392;12.448;2024-01-30T14:01:00;13.60;85.30
1075;DHT22;526;51.392;12.448;2024-01-30T14:03:25;13.50;85.50
1075;DHT22;526;51.392;12.448;2024-01-30T14:05:51;13.60;85.20
1075;DHT22;526;51.392;12.448;2024-01-30T14:08:16;13.40;85.50
1075;DHT22;526;51.392;12.448;2024-01-30T14:10:42;13.20;86.00
1075;DHT22;526;51.392;12.448;2024-01-30T14:13:07;13.00;86.10
1075;DHT22;526;51.392;12.448;2024-01-30T14:15:33;12.70;86.90
1075;DHT22;526;51.392;12.448;2024-01-30T14:17:58;12.70;87.40
1075;DHT22;526;51.392;12.448;2024-01-30T14:20:24;12.60;87.60
1075;DHT22;526;51.392;12.448;2024-01-30T14:22:49;12.60;87.90
1075;DHT22;526;51.392;12.448;2024-01-30T14:25:15;12.50;87.90
1075;DHT22;526;51.392;12.448;2024-01-30T14:27:41;12.50;88.30
1075;DHT22;526;51.392;12.448;2024-01-30T14:30:10;12.40;88.70
1075;DHT22;526;51.392;12.448;2024-01-30T14:32:36;12.30;88.70
1075;DHT22;526;51.392;12.448;2024-01-30T14:35:04;12.30;89.00
1075;DHT22;526;51.392;12.448;2024-01-30T14:37:29;12.20;89.10
1075;DHT22;526;51.392;12.448;2024-01-30T14:39:55;12.20;89.40
1075;DHT22;526;51.392;12.448;2024-01-30T14:42:21;12.10;89.70
1075;DHT22;526;51.392;12.448;2024-01-30T14:44:46;12.00;90.10
1075;DHT22;526;51.392;12.448;2024-01-30T14:47:12;11.90;90.20
1075;DHT22;526;51.392;12.448;2024-01-30T14:49:38;11.90;90.50
1075;DHT22;526;51.392;12.448;2024-01-30T14:52:04;11.80;90.90
1075;DHT22;526;51.392;12.448;2024-01-30T14:54:30;11.70;91.10
1075;DHT22;526;51.392;12.448;2024-01-30T14:56:58;11.70;91.30
1075;DHT22;526;51.392;12.448;2024-01-30T14:59:53;11.70;91.40
1075;DHT22;526;51.392;12.448;2024-01-30T15:02:25;11.60;91.70
1075;DHT22;526;51.392;12.448;2024-01-30T15:05:05;11.60;91.90
1075;DHT22;526;51.392;12.448;2024-01-30T15:07:53;11.60;91.90
1075;DHT22;526;51.392;12.448;2024-01-30T15:10:19;11.50;92.10
1075;DHT22;526;51.392;12.448;2024-01-30T15:13:03;11.50;92.40
1075;DHT22;526;51.392;12.448;2024-01-30T15:15:44;11.50;92.50
1075;DHT22;526;51.392;12.448;2024-01-30T15:18:35;11.40;92.60
1075;DHT22;526;51.392;12.448;2024-01-30T15:24:14;11.40;93.00
1075;DHT22;526;51.392;12.448;2024-01-30T15:27:06;11.30;93.30
1075;DHT22;526;51.392;12.448;2024-01-30T15:30:01;11.30;93.40
1075;DHT22;526;51.392;12.448;2024-01-30T15:32:37;11.20;93.70
1075;DHT22;526;51.392;12.448;2024-01-30T15:35:14;11.20;93.80
1075;DHT22;526;51.392;12.448;2024-01-30T15:37:53;11.10;94.20
1075;DHT22;526;51.392;12.448;2024-01-30T15:40:26;11.10;94.40
1075;DHT22;526;51.392;12.448;2024-01-30T15:42:55;11.00;94.60
1075;DHT22;526;51.392;12.448;2024-01-30T15:45:27;11.00;94.60
1075;DHT22;526;51.392;12.448;2024-01-30T15:48:20;11.00;94.70
1075;DHT22;526;51.392;12.448;2024-01-30T15:50:56;11.00;94.80
1075;DHT22;526;51.392;12.448;2024-01-30T15:53:25;10.90;95.00
1075;DHT22;526;51.392;12.448;2024-01-30T15:55:54;10.80;95.20
1075;DHT22;526;51.392;12.448;2024-01-30T15:58:22;10.80;95.30
1075;DHT22;526;51.392;12.448;2024-01-30T16:00:56;10.80;95.40
1075;DHT22;526;51.392;12.448;2024-01-30T16:03:24;10.70;95.40
1075;DHT22;526;51.392;12.448;2024-01-30T16:05:59;10.70;95.70
1075;DHT22;526;51.392;12.448;2024-01-30T16:08:47;10.60;95.90
1075;DHT22;526;51.392;12.448;2024-01-30T16:11:32;10.60;96.00
1075;DHT22;526;51.392;12.448;2024-01-30T16:14:05;10.50;96.20
1075;DHT22;526;51.392;12.448;2024-01-30T16:16:34;10.40;96.30
1075;DHT22;526;51.392;12.448;2024-01-30T16:19:06;10.40;96.30
1075;DHT22;526;51.392;12.448;2024-01-30T16:21:34;10.40;96.40
1075;DHT22;526;51.392;12.448;2024-01-30T16:23:59;10.40;96.40
1075;DHT22;526;51.392;12.448;2024-01-30T16:26:26;10.30;96.60
1075;DHT22;526;51.392;12.448;2024-01-30T16:28:52;10.30;96.70
1075;DHT22;526;51.392;12.448;2024-01-30T16:31:20;10.20;96.80
1075;DHT22;526;51.392;12.448;2024-01-30T16:33:49;10.20;96.90
1075;DHT22;526;51.392;12.448;2024-01-30T16:36:15;10.10;97.10
1075;DHT22;526;51.392;12.448;2024-01-30T16:38:41;10.00;97.30
1075;DHT22;526;51.392;12.448;2024-01-30T16:41:07;10.00;97.30
1075;DHT22;526;51.392;12.448;2024-01-30T16:43:32;9.90;97.30
1075;DHT22;526;51.392;12.448;2024-01-30T16:45:58;9.90;97.30
1075;DHT22;526;51.392;12.448;2024-01-30T16:48:26;9.70;97.30
1075;DHT22;526;51.392;12.448;2024-01-30T16:50:51;9.60;97.30
1075;DHT22;526;51.392;12.448;2024-01-30T16:53:17;9.50;97.30
1075;DHT22;526;51.392;12.448;2024-01-30T16:55:42;9.40;97.30
1075;DHT22;526;51.392;12.448;2024-01-30T16:58:08;9.40;97.30
1075;DHT22;526;51.392;12.448;2024-01-30T17:00:35;9.40;97.30
1075;DHT22;526;51.392;12.448;2024-01-30T17:03:00;9.40;97.30
1075;DHT22;526;51.392;12.448;2024-01-30T17:05:28;9.40;97.30
1075;DHT22;526;51.392;12.448;2024-01-30T17:07:54;9.40;97.30
1075;DHT22;526;51.392;12.448;2024-01-30T17:10:19;9.40;97.30
1075;DHT22;526;51.392;12.448;2024-01-30T17:12:46;9.40;97.30
1075;DHT22;526;51.392;12.448;2024-01-30T17:15:11;9.40;97.30
1075;DHT22;526;51.392;12.448;2024-01-30T17:17:37;9.40;97.30
1075;DHT22;526;51.392;12.448;2024-01-30T17:20:03;9.30;97.30
1075;DHT22;526;51.392;12.448;2024-01-30T17:22:29;9.30;97.30
1075;DHT22;526;51.392;12.448;2024-01-30T17:24:55;9.30;97.30
1075;DHT22;526;51.392;12.448;2024-01-30T17:27:21;9.20;97.30
1075;DHT22;526;51.392;12.448;2024-01-30T17:29:46;9.20;97.30
1075;DHT22;526;51.392;12.448;2024-01-30T17:32:12;9.20;97.30
1075;DHT22;526;51.392;12.448;2024-01-30T17:34:38;9.20;97.30
1075;DHT22;526;51.392;12.448;2024-01-30T17:37:04;9.20;97.30
1075;DHT22;526;51.392;12.448;2024-01-30T17:39:29;9.20;97.30
1075;DHT22;526;51.392;12.448;2024-01-30T17:41:55;9.20;97.30
1075;DHT22;526;51.392;12.448;2024-01-30T17:44:20;9.10;97.30
1075;DHT22;526;51.392;12.448;2024-01-30T17:46:46;9.10;97.30
1075;DHT22;526;51.392;12.448;2024-01-30T17:49:12;9.10;97.30
1075;DHT22;526;51.392;12.448;2024-01-30T17:51:41;9.10;97.30
1075;DHT22;526;51.392;12.448;2024-01-30T17:54:07;9.10;97.30
1075;DHT22;526;51.392;12.448;2024-01-30T17:56:33;9.10;97.30
1075;DHT22;526;51.392;12.448;2024-01-30T17:58:58;9.10;97.30
1075;DHT22;526;51.392;12.448;2024-01-30T18:01:24;9.10;97.30
1075;DHT22;526;51.392;12.448;2024-01-30T18:03:49;9.10;97.30
1075;DHT22;526;51.392;12.448;2024-01-30T18:06:17;9.10;97.30
1075;DHT22;526;51.392;12.448;2024-01-30T18:08:43;9.10;97.30
1075;DHT22;526;51.392;12.448;2024-01-30T18:11:09;9.00;97.30
1075;DHT22;526;51.392;12.448;2024-01-30T18:13:35;9.00;97.30
1075;DHT22;526;51.392;12.448;2024-01-30T18:16:00;9.00;97.30
1075;DHT22;526;51.392;12.448;2024-01-30T18:18:26;8.90;97.30
1075;DHT22;526;51.392;12.448;2024-01-30T18:20:52;8.90;97.30
1075;DHT22;526;51.392;12.448;2024-01-30T18:23:17;8.90;97.30
1075;DHT22;526;51.392;12.448;2024-01-30T18:25:43;8.90;97.30
1075;DHT22;526;51.392;12.448;2024-01-30T18:28:09;8.80;97.30
1075;DHT22;526;51.392;12.448;2024-01-30T18:30:34;8.80;97.30
1075;DHT22;526;51.392;12.448;2024-01-30T18:33:00;8.80;97.30
1075;DHT22;526;51.392;12.448;2024-01-30T18:35:28;8.70;97.30
1075;DHT22;526;51.392;12.448;2024-01-30T18:37:54;8.70;97.30
1075;DHT22;526;51.392;12.448;2024-01-30T18:40:19;8.70;97.30
1075;DHT22;526;51.392;12.448;2024-01-30T18:42:45;8.70;97.30
1075;DHT22;526;51.392;12.448;2024-01-30T18:45:11;8.60;97.30
1075;DHT22;526;51.392;12.448;2024-01-30T18:47:37;8.70;97.30
1075;DHT22;526;51.392;12.448;2024-01-30T18:50:05;8.60;97.30
1075;DHT22;526;51.392;12.448;2024-01-30T18:52:31;8.60;97.30
1075;DHT22;526;51.392;12.448;2024-01-30T18:54:56;8.60;97.30
1075;DHT22;526;51.392;12.448;2024-01-30T18:57:22;8.60;97.30
1075;DHT22;526;51.392;12.448;2024-01-30T18:59:47;8.50;97.30
1075;DHT22;526;51.392;12.448;2024-01-30T19:02:13;8.50;97.30
1075;DHT22;526;51.392;12.448;2024-01-30T19:04:39;8.40;97.30
1075;DHT22;526;51.392;12.448;2024-01-30T19:07:04;8.40;97.30
1075;DHT22;526;51.392;12.448;2024-01-30T19:09:30;8.40;97.30
1075;DHT22;526;51.392;12.448;2024-01-30T19:11:56;8.40;97.30
1075;DHT22;526;51.392;12.448;2024-01-30T19:14:22;8.30;97.30
1075;DHT22;526;51.392;12.448;2024-01-30T19:16:48;8.30;97.30
1075;DHT22;526;51.392;12.448;2024-01-30T19:19:13;8.20;97.30
1075;DHT22;526;51.392;12.448;2024-01-30T19:21:39;8.00;97.30
1075;DHT22;526;51.392;12.448;2024-01-30T19:24:05;7.90;97.30
1075;DHT22;526;51.392;12.448;2024-01-30T19:26:30;7.70;97.30
1075;DHT22;526;51.392;12.448;2024-01-30T19:28:56;7.60;97.30
1075;DHT22;526;51.392;12.448;2024-01-30T19:31:23;7.50;97.30
1075;DHT22;526;51.392;12.448;2024-01-30T19:33:49;7.40;97.30
1075;DHT22;526;51.392;12.448;2024-01-30T19:36:14;7.40;97.30
1075;DHT22;526;51.392;12.448;2024-01-30T19:38:40;7.30;97.30
1075;DHT22;526;51.392;12.448;2024-01-30T19:41:06;7.40;97.30
1075;DHT22;526;51.392;12.448;2024-01-30T19:43:33;7.40;97.30
1075;DHT22;526;51.392;12.448;2024-01-30T19:45:59;7.40;97.30
1075;DHT22;526;51.392;12.448;2024-01-30T19:48:25;7.50;97.30
1075;DHT22;526;51.392;12.448;2024-01-30T19:50:50;7.50;97.30
1075;DHT22;526;51.392;12.448;2024-01-30T19:53:17;7.50;97.30
1075;DHT22;526;51.392;12.448;2024-01-30T19:55:43;7.50;97.30
1075;DHT22;526;51.392;12.448;2024-01-30T19:58:09;7.50;97.30
1075;DHT22;526;51.392;12.448;2024-01-30T20:00:34;7.40;97.30
1075;DHT22;526;51.392;12.448;2024-01-30T20:03:00;7.50;97.30
1075;DHT22;526;51.392;12.448;2024-01-30T20:05:25;7.50;97.30
1075;DHT22;526;51.392;12.448;2024-01-30T20:07:51;7.50;97.30
1075;DHT22;526;51.392;12.448;2024-01-30T20:10:17;7.50;97.30
1075;DHT22;526;51.392;12.448;2024-01-30T20:12:42;7.50;97.30
1075;DHT22;526;51.392;12.448;2024-01-30T20:15:08;7.60;97.30
1075;DHT22;526;51.392;12.448;2024-01-30T20:17:40;7.60;97.30
1075;DHT22;526;51.392;12.448;2024-01-30T20:20:08;7.70;97.30
1075;DHT22;526;51.392;12.448;2024-01-30T20:22:35;7.70;97.30
1075;DHT22;526;51.392;12.448;2024-01-30T20:25:01;7.70;97.30
1075;DHT22;526;51.392;12.448;2024-01-30T20:27:26;7.80;97.30
1075;DHT22;526;51.392;12.448;2024-01-30T20:29:52;7.90;97.30
1075;DHT22;526;51.392;12.448;2024-01-30T20:32:18;8.00;97.30
1075;DHT22;526;51.392;12.448;2024-01-30T20:34:44;8.00;97.30
1075;DHT22;526;51.392;12.448;2024-01-30T20:37:10;8.10;97.30
1075;DHT22;526;51.392;12.448;2024-01-30T20:39:35;8.10;97.30
1075;DHT22;526;51.392;12.448;2024-01-30T20:42:01;8.20;97.30
1075;DHT22;526;51.392;12.448;2024-01-30T20:44:26;8.20;97.30
1075;DHT22;526;51.392;12.448;2024-01-30T20:46:52;8.20;97.30
1075;DHT22;526;51.392;12.448;2024-01-30T20:49:17;8.20;97.30
1075;DHT22;526;51.392;12.448;2024-01-30T20:51:43;8.30;97.30
1075;DHT22;526;51.392;12.448;2024-01-30T20:54:09;8.30;97.30
1075;DHT22;526;51.392;12.448;2024-01-30T20:56:34;8.30;97.30
1075;DHT22;526;51.392;12.448;2024-01-30T20:59:00;8.30;97.30
1075;DHT22;526;51.392;12.448;2024-01-30T21:01:25;8.30;97.30
1075;DHT22;526;51.392;12.448;2024-01-30T21:03:51;8.20;97.30
1075;DHT22;526;51.392;12.448;2024-01-30T21:06:16;8.20;97.30
1075;DHT22;526;51.392;12.448;2024-01-30T21:08:42;8.20;97.30
1075;DHT22;526;51.392;12.448;2024-01-30T21:11:11;8.20;97.30
1075;DHT22;526;51.392;12.448;2024-01-30T21:13:36;8.10;97.30
1075;DHT22;526;51.392;12.448;2024-01-30T21:16:03;8.10;97.30